sensor_id;sensor_type;location;lat;lon;timestamp;pressure;altitude;pressure_sealevel;temperature
23208;BMP180;11773;52.570;13.052;2023-07-30T00:00:06;100580.00;;;24.70
23208;BMP180;11773;52.570;13.052;2023-07-30T00:02:36;100577.00;;;24.70
23208;BMP180;11773;52.570;13.052;2023-07-30T00:05:05;100572.00;;;24.70
23208;BMP180;11773;52.570;13.052;2023-07-30T00:07:35;100565.00;;;24.60
23208;BMP180;11773;52.570;13.052;2023-07-30T00:10:05;100561.00;;;24.60
23208;BMP180;11773;52.570;13.052;2023-07-30T00:12:35;100561.00;;;24.60
23208;BMP180;11773;52.570;13.052;2023-07-30T00:15:05;100564.00;;;24.60
23208;BMP180;11773;52.570;13.052;2023-07-30T00:17:35;100577.00;;;24.60
23208;BMP180;11773;52.570;13.052;2023-07-30T00:20:07;100572.00;;;24.60
23208;BMP180;11773;52.570;13.052;2023-07-30T00:22:37;100567.00;;;24.50
23208;BMP180;11773;52.570;13.052;2023-07-30T00:25:07;100558.00;;;24.50
23208;BMP180;11773;52.570;13.052;2023-07-30T00:27:36;100552.00;;;24.50
23208;BMP180;11773;52.570;13.052;2023-07-30T00:30:07;100555.00;;;24.40
23208;BMP180;11773;52.570;13.052;2023-07-30T00:32:36;100556.00;;;24.40
23208;BMP180;11773;52.570;13.052;2023-07-30T00:35:10;100560.00;;;24.30
23208;BMP180;11773;52.570;13.052;2023-07-30T00:37:39;100545.00;;;24.30
23208;BMP180;11773;52.570;13.052;2023-07-30T00:40:09;100555.00;;;24.20
23208;BMP180;11773;52.570;13.052;2023-07-30T00:42:39;100548.00;;;24.20
23208;BMP180;11773;52.570;13.052;2023-07-30T00:45:10;100550.00;;;24.20
23208;BMP180;11773;52.570;13.052;2023-07-30T00:47:40;100541.00;;;24.10
23208;BMP180;11773;52.570;13.052;2023-07-30T00:50:13;100540.00;;;24.10
23208;BMP180;11773;52.570;13.052;2023-07-30T00:52:44;100533.00;;;24.10
23208;BMP180;11773;52.570;13.052;2023-07-30T00:55:16;100529.00;;;24.00
23208;BMP180;11773;52.570;13.052;2023-07-30T00:57:46;100529.00;;;24.00
23208;BMP180;11773;52.570;13.052;2023-07-30T01:00:16;100534.00;;;24.00
23208;BMP180;11773;52.570;13.052;2023-07-30T01:02:45;100526.00;;;24.00
23208;BMP180;11773;52.570;13.052;2023-07-30T01:05:15;100518.00;;;24.00
23208;BMP180;11773;52.570;13.052;2023-07-30T01:07:44;100529.00;;;23.90
23208;BMP180;11773;52.570;13.052;2023-07-30T01:10:14;100530.00;;;23.90
23208;BMP180;11773;52.570;13.052;2023-07-30T01:12:45;100520.00;;;23.90
23208;BMP180;11773;52.570;13.052;2023-07-30T01:15:16;100539.00;;;23.80
23208;BMP180;11773;52.570;13.052;2023-07-30T01:17:46;100556.00;;;23.80
23208;BMP180;11773;52.570;13.052;2023-07-30T01:20:16;100537.00;;;23.70
23208;BMP180;11773;52.570;13.052;2023-07-30T01:22:46;100539.00;;;23.70
23208;BMP180;11773;52.570;13.052;2023-07-30T01:25:16;100542.00;;;23.60
23208;BMP180;11773;52.570;13.052;2023-07-30T01:27:50;100548.00;;;23.60
23208;BMP180;11773;52.570;13.052;2023-07-30T01:30:30;100556.00;;;23.60
23208;BMP180;11773;52.570;13.052;2023-07-30T01:33:02;100549.00;;;23.50
23208;BMP180;11773;52.570;13.052;2023-07-30T01:35:32;100551.00;;;23.50
23208;BMP180;11773;52.570;13.052;2023-07-30T01:38:04;100564.00;;;23.40
23208;BMP180;11773;52.570;13.052;2023-07-30T01:40:35;100551.00;;;23.40
23208;BMP180;11773;52.570;13.052;2023-07-30T01:43:06;100553.00;;;23.40
23208;BMP180;11773;52.570;13.052;2023-07-30T01:45:36;100558.00;;;23.30
23208;BMP180;11773;52.570;13.052;2023-07-30T01:48:07;100553.00;;;23.30
23208;BMP180;11773;52.570;13.052;2023-07-30T01:50:37;100561.00;;;23.30
23208;BMP180;11773;52.570;13.052;2023-07-30T01:53:06;100553.00;;;23.20
23208;BMP180;11773;52.570;13.052;2023-07-30T01:55:36;100564.00;;;23.20
23208;BMP180;11773;52.570;13.052;2023-07-30T01:58:07;100560.00;;;23.20
23208;BMP180;11773;52.570;13.052;2023-07-30T02:00:37;100572.00;;;23.20
23208;BMP180;11773;52.570;13.052;2023-07-30T02:03:07;100561.00;;;23.10
23208;BMP180;11773;52.570;13.052;2023-07-30T02:05:36;100549.00;;;23.10
23208;BMP180;11773;52.570;13.052;2023-07-30T02:08:06;100549.00;;;23.10
23208;BMP180;11773;52.570;13.052;2023-07-30T02:10:35;100551.00;;;23.10
23208;BMP180;11773;52.570;13.052;2023-07-30T02:13:05;100552.00;;;23.00
23208;BMP180;11773;52.570;13.052;2023-07-30T02:15:35;100552.00;;;23.00
23208;BMP180;11773;52.570;13.052;2023-07-30T02:18:06;100556.00;;;22.90
23208;BMP180;11773;52.570;13.052;2023-07-30T02:20:37;100566.00;;;22.90
23208;BMP180;11773;52.570;13.052;2023-07-30T02:23:06;100563.00;;;22.90
23208;BMP180;11773;52.570;13.052;2023-07-30T02:25:38;100572.00;;;22.90
23208;BMP180;11773;52.570;13.052;2023-07-30T02:28:07;100570.00;;;22.80
23208;BMP180;11773;52.570;13.052;2023-07-30T02:30:37;100581.00;;;22.80
23208;BMP180;11773;52.570;13.052;2023-07-30T02:33:06;100575.00;;;22.80
23208;BMP180;11773;52.570;13.052;2023-07-30T02:35:36;100569.00;;;22.80
23208;BMP180;11773;52.570;13.052;2023-07-30T02:38:05;100576.00;;;22.70
23208;BMP180;11773;52.570;13.052;2023-07-30T02:40:35;100586.00;;;22.70
23208;BMP180;11773;52.570;13.052;2023-07-30T02:43:04;100590.00;;;22.70
23208;BMP180;11773;52.570;13.052;2023-07-30T02:45:34;100593.00;;;22.70
23208;BMP180;11773;52.570;13.052;2023-07-30T02:48:04;100574.00;;;22.60
23208;BMP180;11773;52.570;13.052;2023-07-30T02:50:33;100590.00;;;22.60
23208;BMP180;11773;52.570;13.052;2023-07-30T02:53:03;100577.00;;;22.60
23208;BMP180;11773;52.570;13.052;2023-07-30T02:55:33;100586.00;;;22.50
23208;BMP180;11773;52.570;13.052;2023-07-30T02:58:02;100589.00;;;22.50
23208;BMP180;11773;52.570;13.052;2023-07-30T03:00:32;100596.00;;;22.50
23208;BMP180;11773;52.570;13.052;2023-07-30T03:03:01;100589.00;;;22.40
23208;BMP180;11773;52.570;13.052;2023-07-30T03:05:31;100600.00;;;22.40
23208;BMP180;11773;52.570;13.052;2023-07-30T03:08:01;100595.00;;;22.40
23208;BMP180;11773;52.570;13.052;2023-07-30T03:10:30;100599.00;;;22.40
23208;BMP180;11773;52.570;13.052;2023-07-30T03:13:00;100605.00;;;22.30
23208;BMP180;11773;52.570;13.052;2023-07-30T03:15:29;100614.00;;;22.30
23208;BMP180;11773;52.570;13.052;2023-07-30T03:17:59;100587.00;;;22.30
23208;BMP180;11773;52.570;13.052;2023-07-30T03:20:29;100596.00;;;22.30
23208;BMP180;11773;52.570;13.052;2023-07-30T03:22:58;100607.00;;;22.30
23208;BMP180;11773;52.570;13.052;2023-07-30T03:25:28;100592.00;;;22.30
23208;BMP180;11773;52.570;13.052;2023-07-30T03:27:57;100596.00;;;22.20
23208;BMP180;11773;52.570;13.052;2023-07-30T03:30:27;100595.00;;;22.20
23208;BMP180;11773;52.570;13.052;2023-07-30T03:32:57;100603.00;;;22.20
23208;BMP180;11773;52.570;13.052;2023-07-30T03:35:26;100602.00;;;22.20
23208;BMP180;11773;52.570;13.052;2023-07-30T03:37:56;100600.00;;;22.20
23208;BMP180;11773;52.570;13.052;2023-07-30T03:40:25;100601.00;;;22.10
23208;BMP180;11773;52.570;13.052;2023-07-30T03:42:55;100582.00;;;22.10
23208;BMP180;11773;52.570;13.052;2023-07-30T03:45:24;100611.00;;;22.10
23208;BMP180;11773;52.570;13.052;2023-07-30T03:47:54;100593.00;;;22.10
23208;BMP180;11773;52.570;13.052;2023-07-30T03:50:24;100594.00;;;22.10
23208;BMP180;11773;52.570;13.052;2023-07-30T03:52:54;100596.00;;;22.10
23208;BMP180;11773;52.570;13.052;2023-07-30T03:55:24;100596.00;;;22.10
23208;BMP180;11773;52.570;13.052;2023-07-30T03:57:53;100610.00;;;22.10
23208;BMP180;11773;52.570;13.052;2023-07-30T04:00:23;100602.00;;;22.10
23208;BMP180;11773;52.570;13.052;2023-07-30T04:02:52;100597.00;;;22.00
23208;BMP180;11773;52.570;13.052;2023-07-30T04:05:22;100603.00;;;22.00
23208;BMP180;11773;52.570;13.052;2023-07-30T04:07:52;100615.00;;;22.00
23208;BMP180;11773;52.570;13.052;2023-07-30T04:10:22;100617.00;;;22.00
23208;BMP180;11773;52.570;13.052;2023-07-30T04:12:52;100613.00;;;22.00
23208;BMP180;11773;52.570;13.052;2023-07-30T04:15:21;100610.00;;;22.00
23208;BMP180;11773;52.570;13.052;2023-07-30T04:17:51;100608.00;;;22.00
23208;BMP180;11773;52.570;13.052;2023-07-30T04:20:20;100628.00;;;22.00
23208;BMP180;11773;52.570;13.052;2023-07-30T04:22:50;100627.00;;;22.00
23208;BMP180;11773;52.570;13.052;2023-07-30T04:25:20;100623.00;;;22.00
23208;BMP180;11773;52.570;13.052;2023-07-30T04:27:49;100626.00;;;22.00
23208;BMP180;11773;52.570;13.052;2023-07-30T04:30:19;100633.00;;;22.00
23208;BMP180;11773;52.570;13.052;2023-07-30T04:32:49;100627.00;;;22.00
23208;BMP180;11773;52.570;13.052;2023-07-30T04:35:18;100630.00;;;22.00
23208;BMP180;11773;52.570;13.052;2023-07-30T04:37:48;100640.00;;;22.00
23208;BMP180;11773;52.570;13.052;2023-07-30T04:40:18;100644.00;;;22.10
23208;BMP180;11773;52.570;13.052;2023-07-30T04:42:48;100647.00;;;22.10
23208;BMP180;11773;52.570;13.052;2023-07-30T04:45:17;100639.00;;;22.10
23208;BMP180;11773;52.570;13.052;2023-07-30T04:47:47;100635.00;;;22.10
23208;BMP180;11773;52.570;13.052;2023-07-30T04:50:17;100655.00;;;22.10
23208;BMP180;11773;52.570;13.052;2023-07-30T04:52:46;100641.00;;;22.20
23208;BMP180;11773;52.570;13.052;2023-07-30T04:55:16;100641.00;;;22.20
23208;BMP180;11773;52.570;13.052;2023-07-30T04:57:45;100635.00;;;22.20
23208;BMP180;11773;52.570;13.052;2023-07-30T05:00:15;100645.00;;;22.30
23208;BMP180;11773;52.570;13.052;2023-07-30T05:02:45;100637.00;;;22.30
23208;BMP180;11773;52.570;13.052;2023-07-30T05:05:15;100624.00;;;22.40
23208;BMP180;11773;52.570;13.052;2023-07-30T05:07:44;100631.00;;;22.40
23208;BMP180;11773;52.570;13.052;2023-07-30T05:10:14;100645.00;;;22.50
23208;BMP180;11773;52.570;13.052;2023-07-30T05:12:44;100631.00;;;22.50
23208;BMP180;11773;52.570;13.052;2023-07-30T05:15:14;100632.00;;;22.60
23208;BMP180;11773;52.570;13.052;2023-07-30T05:17:43;100622.00;;;22.60
23208;BMP180;11773;52.570;13.052;2023-07-30T05:20:13;100630.00;;;22.70
23208;BMP180;11773;52.570;13.052;2023-07-30T05:22:42;100638.00;;;22.70
23208;BMP180;11773;52.570;13.052;2023-07-30T05:25:12;100634.00;;;22.70
23208;BMP180;11773;52.570;13.052;2023-07-30T05:27:41;100636.00;;;22.80
23208;BMP180;11773;52.570;13.052;2023-07-30T05:30:11;100629.00;;;22.80
23208;BMP180;11773;52.570;13.052;2023-07-30T05:32:41;100634.00;;;22.80
23208;BMP180;11773;52.570;13.052;2023-07-30T05:35:10;100651.00;;;22.90
23208;BMP180;11773;52.570;13.052;2023-07-30T05:37:40;100643.00;;;22.90
23208;BMP180;11773;52.570;13.052;2023-07-30T05:40:10;100647.00;;;23.00
23208;BMP180;11773;52.570;13.052;2023-07-30T05:42:39;100642.00;;;23.00
23208;BMP180;11773;52.570;13.052;2023-07-30T05:45:09;100641.00;;;23.20
23208;BMP180;11773;52.570;13.052;2023-07-30T05:47:39;100635.00;;;23.30
23208;BMP180;11773;52.570;13.052;2023-07-30T05:50:09;100643.00;;;23.50
23208;BMP180;11773;52.570;13.052;2023-07-30T05:52:38;100634.00;;;23.60
23208;BMP180;11773;52.570;13.052;2023-07-30T05:55:08;100644.00;;;23.70
23208;BMP180;11773;52.570;13.052;2023-07-30T05:57:38;100646.00;;;23.80
23208;BMP180;11773;52.570;13.052;2023-07-30T06:00:08;100633.00;;;24.00
23208;BMP180;11773;52.570;13.052;2023-07-30T06:02:38;100629.00;;;24.20
23208;BMP180;11773;52.570;13.052;2023-07-30T06:05:08;100645.00;;;24.30
23208;BMP180;11773;52.570;13.052;2023-07-30T06:07:38;100640.00;;;24.50
23208;BMP180;11773;52.570;13.052;2023-07-30T06:10:08;100644.00;;;24.60
23208;BMP180;11773;52.570;13.052;2023-07-30T06:12:38;100648.00;;;24.70
23208;BMP180;11773;52.570;13.052;2023-07-30T06:15:09;100648.00;;;24.80
23208;BMP180;11773;52.570;13.052;2023-07-30T06:17:38;100646.00;;;24.80
23208;BMP180;11773;52.570;13.052;2023-07-30T06:20:09;100634.00;;;24.90
23208;BMP180;11773;52.570;13.052;2023-07-30T06:22:38;100639.00;;;24.90
23208;BMP180;11773;52.570;13.052;2023-07-30T06:25:08;100644.00;;;25.00
23208;BMP180;11773;52.570;13.052;2023-07-30T06:27:38;100655.00;;;25.00
23208;BMP180;11773;52.570;13.052;2023-07-30T06:30:08;100644.00;;;25.10
23208;BMP180;11773;52.570;13.052;2023-07-30T06:32:37;100641.00;;;25.20
23208;BMP180;11773;52.570;13.052;2023-07-30T06:35:07;100640.00;;;25.30
23208;BMP180;11773;52.570;13.052;2023-07-30T06:37:37;100638.00;;;25.50
23208;BMP180;11773;52.570;13.052;2023-07-30T06:40:07;100639.00;;;25.60
23208;BMP180;11773;52.570;13.052;2023-07-30T06:42:37;100645.00;;;25.80
23208;BMP180;11773;52.570;13.052;2023-07-30T06:45:08;100637.00;;;25.90
23208;BMP180;11773;52.570;13.052;2023-07-30T06:47:38;100643.00;;;26.00
23208;BMP180;11773;52.570;13.052;2023-07-30T06:50:07;100658.00;;;26.20
23208;BMP180;11773;52.570;13.052;2023-07-30T06:52:37;100644.00;;;26.40
23208;BMP180;11773;52.570;13.052;2023-07-30T06:55:07;100650.00;;;26.50
23208;BMP180;11773;52.570;13.052;2023-07-30T06:57:37;100644.00;;;26.70
23208;BMP180;11773;52.570;13.052;2023-07-30T07:00:07;100644.00;;;26.90
23208;BMP180;11773;52.570;13.052;2023-07-30T07:02:37;100652.00;;;27.10
23208;BMP180;11773;52.570;13.052;2023-07-30T07:05:07;100653.00;;;27.20
23208;BMP180;11773;52.570;13.052;2023-07-30T07:07:36;100653.00;;;27.40
23208;BMP180;11773;52.570;13.052;2023-07-30T07:10:06;100655.00;;;27.50
23208;BMP180;11773;52.570;13.052;2023-07-30T07:12:36;100653.00;;;27.60
23208;BMP180;11773;52.570;13.052;2023-07-30T07:15:07;100665.00;;;27.70
23208;BMP180;11773;52.570;13.052;2023-07-30T07:17:37;100666.00;;;27.80
23208;BMP180;11773;52.570;13.052;2023-07-30T07:20:07;100673.00;;;27.90
23208;BMP180;11773;52.570;13.052;2023-07-30T07:22:36;100655.00;;;28.00
23208;BMP180;11773;52.570;13.052;2023-07-30T07:25:06;100670.00;;;28.00
23208;BMP180;11773;52.570;13.052;2023-07-30T07:27:36;100672.00;;;28.10
23208;BMP180;11773;52.570;13.052;2023-07-30T07:30:06;100661.00;;;28.10
23208;BMP180;11773;52.570;13.052;2023-07-30T07:32:36;100667.00;;;28.20
23208;BMP180;11773;52.570;13.052;2023-07-30T07:35:07;100673.00;;;28.30
23208;BMP180;11773;52.570;13.052;2023-07-30T07:37:37;100658.00;;;28.40
23208;BMP180;11773;52.570;13.052;2023-07-30T07:40:08;100663.00;;;28.40
23208;BMP180;11773;52.570;13.052;2023-07-30T07:42:39;100665.00;;;28.50
23208;BMP180;11773;52.570;13.052;2023-07-30T07:45:09;100659.00;;;28.60
23208;BMP180;11773;52.570;13.052;2023-07-30T07:47:39;100667.00;;;28.60
23208;BMP180;11773;52.570;13.052;2023-07-30T07:50:09;100667.00;;;28.70
23208;BMP180;11773;52.570;13.052;2023-07-30T07:52:38;100660.00;;;28.80
23208;BMP180;11773;52.570;13.052;2023-07-30T07:55:09;100668.00;;;28.80
23208;BMP180;11773;52.570;13.052;2023-07-30T07:57:39;100672.00;;;28.90
23208;BMP180;11773;52.570;13.052;2023-07-30T08:00:08;100669.00;;;29.00
23208;BMP180;11773;52.570;13.052;2023-07-30T08:02:39;100671.00;;;29.00
23208;BMP180;11773;52.570;13.052;2023-07-30T08:05:08;100665.00;;;29.10
23208;BMP180;11773;52.570;13.052;2023-07-30T08:07:38;100676.00;;;29.10
23208;BMP180;11773;52.570;13.052;2023-07-30T08:10:08;100677.00;;;29.20
23208;BMP180;11773;52.570;13.052;2023-07-30T08:12:38;100673.00;;;29.20
23208;BMP180;11773;52.570;13.052;2023-07-30T08:15:08;100663.00;;;29.20
23208;BMP180;11773;52.570;13.052;2023-07-30T08:17:37;100677.00;;;29.30
23208;BMP180;11773;52.570;13.052;2023-07-30T08:20:07;100685.00;;;29.30
23208;BMP180;11773;52.570;13.052;2023-07-30T08:22:37;100675.00;;;29.40
23208;BMP180;11773;52.570;13.052;2023-07-30T08:25:07;100681.00;;;29.40
23208;BMP180;11773;52.570;13.052;2023-07-30T08:27:38;100668.00;;;29.50
23208;BMP180;11773;52.570;13.052;2023-07-30T08:30:08;100673.00;;;29.50
23208;BMP180;11773;52.570;13.052;2023-07-30T08:32:38;100677.00;;;29.50
23208;BMP180;11773;52.570;13.052;2023-07-30T08:35:10;100666.00;;;29.60
23208;BMP180;11773;52.570;13.052;2023-07-30T08:37:39;100666.00;;;29.60
23208;BMP180;11773;52.570;13.052;2023-07-30T08:40:10;100668.00;;;29.70
23208;BMP180;11773;52.570;13.052;2023-07-30T08:42:40;100660.00;;;29.70
23208;BMP180;11773;52.570;13.052;2023-07-30T08:45:09;100665.00;;;29.70
23208;BMP180;11773;52.570;13.052;2023-07-30T08:47:41;100664.00;;;29.80
23208;BMP180;11773;52.570;13.052;2023-07-30T08:50:11;100681.00;;;29.80
23208;BMP180;11773;52.570;13.052;2023-07-30T08:52:41;100665.00;;;29.80
23208;BMP180;11773;52.570;13.052;2023-07-30T08:55:12;100678.00;;;29.80
23208;BMP180;11773;52.570;13.052;2023-07-30T08:57:43;100681.00;;;29.70
23208;BMP180;11773;52.570;13.052;2023-07-30T09:00:16;100680.00;;;29.70
23208;BMP180;11773;52.570;13.052;2023-07-30T09:02:53;100678.00;;;29.70
23208;BMP180;11773;52.570;13.052;2023-07-30T09:05:24;100670.00;;;29.70
23208;BMP180;11773;52.570;13.052;2023-07-30T09:07:59;100673.00;;;29.70
23208;BMP180;11773;52.570;13.052;2023-07-30T09:10:29;100672.00;;;29.60
23208;BMP180;11773;52.570;13.052;2023-07-30T09:12:58;100691.00;;;29.60
23208;BMP180;11773;52.570;13.052;2023-07-30T09:15:33;100682.00;;;29.60
23208;BMP180;11773;52.570;13.052;2023-07-30T09:18:04;100683.00;;;29.60
23208;BMP180;11773;52.570;13.052;2023-07-30T09:20:41;100690.00;;;29.60
23208;BMP180;11773;52.570;13.052;2023-07-30T09:23:11;100688.00;;;29.60
23208;BMP180;11773;52.570;13.052;2023-07-30T09:25:41;100678.00;;;29.60
23208;BMP180;11773;52.570;13.052;2023-07-30T09:28:11;100677.00;;;29.60
23208;BMP180;11773;52.570;13.052;2023-07-30T09:30:41;100680.00;;;29.60
23208;BMP180;11773;52.570;13.052;2023-07-30T09:33:10;100689.00;;;29.70
23208;BMP180;11773;52.570;13.052;2023-07-30T09:35:43;100681.00;;;29.70
23208;BMP180;11773;52.570;13.052;2023-07-30T09:38:13;100676.00;;;29.70
23208;BMP180;11773;52.570;13.052;2023-07-30T09:40:43;100677.00;;;29.70
23208;BMP180;11773;52.570;13.052;2023-07-30T09:43:13;100680.00;;;29.80
23208;BMP180;11773;52.570;13.052;2023-07-30T09:45:46;100686.00;;;29.80
23208;BMP180;11773;52.570;13.052;2023-07-30T09:48:16;100683.00;;;29.80
23208;BMP180;11773;52.570;13.052;2023-07-30T09:50:46;100682.00;;;29.90
23208;BMP180;11773;52.570;13.052;2023-07-30T09:53:17;100679.00;;;29.90
23208;BMP180;11773;52.570;13.052;2023-07-30T09:55:47;100677.00;;;29.90
23208;BMP180;11773;52.570;13.052;2023-07-30T09:58:17;100691.00;;;30.00
23208;BMP180;11773;52.570;13.052;2023-07-30T10:00:49;100681.00;;;30.00
23208;BMP180;11773;52.570;13.052;2023-07-30T10:03:19;100685.00;;;30.10
23208;BMP180;11773;52.570;13.052;2023-07-30T10:05:50;100680.00;;;30.10
23208;BMP180;11773;52.570;13.052;2023-07-30T10:08:25;100689.00;;;30.20
23208;BMP180;11773;52.570;13.052;2023-07-30T10:10:57;100683.00;;;30.20
23208;BMP180;11773;52.570;13.052;2023-07-30T10:13:27;100690.00;;;30.20
23208;BMP180;11773;52.570;13.052;2023-07-30T10:15:57;100696.00;;;30.20
23208;BMP180;11773;52.570;13.052;2023-07-30T10:18:41;100692.00;;;30.30
23208;BMP180;11773;52.570;13.052;2023-07-30T10:21:21;100701.00;;;30.30
23208;BMP180;11773;52.570;13.052;2023-07-30T10:23:47;100705.00;;;30.30
23208;BMP180;11773;52.570;13.052;2023-07-30T10:26:25;100695.00;;;30.30
23208;BMP180;11773;52.570;13.052;2023-07-30T10:29:13;100693.00;;;30.20
23208;BMP180;11773;52.570;13.052;2023-07-30T10:31:51;100698.00;;;30.20
23208;BMP180;11773;52.570;13.052;2023-07-30T10:34:20;100684.00;;;30.30
23208;BMP180;11773;52.570;13.052;2023-07-30T10:36:50;100693.00;;;30.30
23208;BMP180;11773;52.570;13.052;2023-07-30T10:39:28;100703.00;;;30.40
23208;BMP180;11773;52.570;13.052;2023-07-30T10:41:59;100692.00;;;30.40
23208;BMP180;11773;52.570;13.052;2023-07-30T10:44:35;100690.00;;;30.40
23208;BMP180;11773;52.570;13.052;2023-07-30T10:47:04;100685.00;;;30.40
23208;BMP180;11773;52.570;13.052;2023-07-30T10:49:36;100694.00;;;30.50
23208;BMP180;11773;52.570;13.052;2023-07-30T10:52:10;100702.00;;;30.50
23208;BMP180;11773;52.570;13.052;2023-07-30T10:54:40;100707.00;;;30.60
23208;BMP180;11773;52.570;13.052;2023-07-30T10:57:10;100706.00;;;30.60
23208;BMP180;11773;52.570;13.052;2023-07-30T10:59:41;100700.00;;;30.70
23208;BMP180;11773;52.570;13.052;2023-07-30T11:02:11;100706.00;;;30.70
23208;BMP180;11773;52.570;13.052;2023-07-30T11:04:41;100703.00;;;30.70
23208;BMP180;11773;52.570;13.052;2023-07-30T11:07:16;100699.00;;;30.80
23208;BMP180;11773;52.570;13.052;2023-07-30T11:09:45;100698.00;;;30.80
23208;BMP180;11773;52.570;13.052;2023-07-30T11:12:17;100691.00;;;30.80
23208;BMP180;11773;52.570;13.052;2023-07-30T11:14:48;100694.00;;;30.80
23208;BMP180;11773;52.570;13.052;2023-07-30T11:17:19;100700.00;;;30.80
23208;BMP180;11773;52.570;13.052;2023-07-30T11:19:49;100692.00;;;30.80
23208;BMP180;11773;52.570;13.052;2023-07-30T11:22:31;100701.00;;;30.80
23208;BMP180;11773;52.570;13.052;2023-07-30T11:25:00;100689.00;;;30.90
23208;BMP180;11773;52.570;13.052;2023-07-30T11:27:49;100691.00;;;30.90
23208;BMP180;11773;52.570;13.052;2023-07-30T11:30:15;100695.00;;;30.90
23208;BMP180;11773;52.570;13.052;2023-07-30T11:32:45;100696.00;;;30.90
23208;BMP180;11773;52.570;13.052;2023-07-30T11:35:17;100693.00;;;30.90
23208;BMP180;11773;52.570;13.052;2023-07-30T11:37:46;100699.00;;;30.90
23208;BMP180;11773;52.570;13.052;2023-07-30T11:40:16;100685.00;;;31.00
23208;BMP180;11773;52.570;13.052;2023-07-30T11:42:46;100684.00;;;31.00
23208;BMP180;11773;52.570;13.052;2023-07-30T11:45:22;100694.00;;;31.00
23208;BMP180;11773;52.570;13.052;2023-07-30T11:47:52;100690.00;;;31.10
23208;BMP180;11773;52.570;13.052;2023-07-30T11:50:22;100686.00;;;31.10
23208;BMP180;11773;52.570;13.052;2023-07-30T11:52:54;100683.00;;;31.10
23208;BMP180;11773;52.570;13.052;2023-07-30T11:55:27;100685.00;;;31.10
23208;BMP180;11773;52.570;13.052;2023-07-30T11:58:16;100697.00;;;31.20
23208;BMP180;11773;52.570;13.052;2023-07-30T12:00:46;100690.00;;;31.20
23208;BMP180;11773;52.570;13.052;2023-07-30T12:03:16;100684.00;;;31.20
23208;BMP180;11773;52.570;13.052;2023-07-30T12:05:49;100693.00;;;31.20
23208;BMP180;11773;52.570;13.052;2023-07-30T12:08:40;100691.00;;;31.20
23208;BMP180;11773;52.570;13.052;2023-07-30T12:11:11;100689.00;;;31.20
23208;BMP180;11773;52.570;13.052;2023-07-30T12:13:45;100682.00;;;31.20
23208;BMP180;11773;52.570;13.052;2023-07-30T12:16:15;100691.00;;;31.10
23208;BMP180;11773;52.570;13.052;2023-07-30T12:18:46;100702.00;;;31.20
23208;BMP180;11773;52.570;13.052;2023-07-30T12:21:16;100686.00;;;31.10
23208;BMP180;11773;52.570;13.052;2023-07-30T12:23:45;100690.00;;;31.10
23208;BMP180;11773;52.570;13.052;2023-07-30T12:26:16;100694.00;;;31.10
23208;BMP180;11773;52.570;13.052;2023-07-30T12:28:46;100686.00;;;31.10
23208;BMP180;11773;52.570;13.052;2023-07-30T12:31:15;100695.00;;;31.10
23208;BMP180;11773;52.570;13.052;2023-07-30T12:33:45;100688.00;;;31.10
23208;BMP180;11773;52.570;13.052;2023-07-30T12:36:15;100693.00;;;31.10
23208;BMP180;11773;52.570;13.052;2023-07-30T12:38:44;100704.00;;;31.10
23208;BMP180;11773;52.570;13.052;2023-07-30T12:41:14;100688.00;;;31.00
23208;BMP180;11773;52.570;13.052;2023-07-30T12:43:44;100685.00;;;31.00
23208;BMP180;11773;52.570;13.052;2023-07-30T12:46:13;100679.00;;;31.00
23208;BMP180;11773;52.570;13.052;2023-07-30T12:48:43;100676.00;;;31.00
23208;BMP180;11773;52.570;13.052;2023-07-30T12:51:13;100682.00;;;31.00
23208;BMP180;11773;52.570;13.052;2023-07-30T12:53:42;100683.00;;;31.00
23208;BMP180;11773;52.570;13.052;2023-07-30T12:56:12;100676.00;;;31.00
23208;BMP180;11773;52.570;13.052;2023-07-30T12:58:43;100685.00;;;31.00
23208;BMP180;11773;52.570;13.052;2023-07-30T13:01:13;100687.00;;;31.00
23208;BMP180;11773;52.570;13.052;2023-07-30T13:03:43;100678.00;;;31.00
23208;BMP180;11773;52.570;13.052;2023-07-30T13:06:14;100685.00;;;31.00
23208;BMP180;11773;52.570;13.052;2023-07-30T13:08:44;100673.00;;;30.90
23208;BMP180;11773;52.570;13.052;2023-07-30T13:11:13;100671.00;;;30.90
23208;BMP180;11773;52.570;13.052;2023-07-30T13:13:43;100660.00;;;30.90
23208;BMP180;11773;52.570;13.052;2023-07-30T13:16:13;100657.00;;;30.90
23208;BMP180;11773;52.570;13.052;2023-07-30T13:18:42;100673.00;;;30.90
23208;BMP180;11773;52.570;13.052;2023-07-30T13:21:12;100672.00;;;30.90
23208;BMP180;11773;52.570;13.052;2023-07-30T13:23:42;100673.00;;;30.90
23208;BMP180;11773;52.570;13.052;2023-07-30T13:26:12;100670.00;;;30.90
23208;BMP180;11773;52.570;13.052;2023-07-30T13:28:41;100659.00;;;30.80
23208;BMP180;11773;52.570;13.052;2023-07-30T13:31:11;100652.00;;;30.80
23208;BMP180;11773;52.570;13.052;2023-07-30T13:33:41;100661.00;;;30.80
23208;BMP180;11773;52.570;13.052;2023-07-30T13:36:10;100667.00;;;30.80
23208;BMP180;11773;52.570;13.052;2023-07-30T13:38:40;100664.00;;;30.80
23208;BMP180;11773;52.570;13.052;2023-07-30T13:41:11;100653.00;;;30.80
23208;BMP180;11773;52.570;13.052;2023-07-30T13:43:41;100655.00;;;30.80
23208;BMP180;11773;52.570;13.052;2023-07-30T13:46:11;100663.00;;;30.80
23208;BMP180;11773;52.570;13.052;2023-07-30T13:48:40;100672.00;;;30.80
23208;BMP180;11773;52.570;13.052;2023-07-30T13:51:10;100662.00;;;30.70
23208;BMP180;11773;52.570;13.052;2023-07-30T13:53:40;100651.00;;;30.80
23208;BMP180;11773;52.570;13.052;2023-07-30T13:56:10;100656.00;;;30.70
23208;BMP180;11773;52.570;13.052;2023-07-30T13:58:39;100668.00;;;30.70
23208;BMP180;11773;52.570;13.052;2023-07-30T14:01:09;100657.00;;;30.70